createdAt,value
2023-09-06T00:00:06.658Z,1012.04
2023-09-06T00:01:06.622Z,1012.03
2023-09-06T00:02:06.549Z,1012.03
2023-09-06T00:03:06.524Z,1012.05
2023-09-06T00:04:06.711Z,1012.06
2023-09-06T00:05:06.641Z,1012.03
2023-09-06T00:06:06.522Z,1012.04
2023-09-06T00:07:06.496Z,1012.07
2023-09-06T00:08:06.519Z,1012.08
2023-09-06T00:09:06.525Z,1012.09
2023-09-06T00:10:06.526Z,1012.11
2023-09-06T00:11:06.444Z,1012.12
2023-09-06T00:12:06.443Z,1012.12
2023-09-06T00:13:06.339Z,1012.12
2023-09-06T00:14:06.421Z,1012.13
2023-09-06T00:15:08.378Z,1012.09
2023-09-06T00:16:06.412Z,1012.08
2023-09-06T00:17:06.407Z,1012.10
2023-09-06T00:18:06.406Z,1012.06
2023-09-06T00:19:06.534Z,1012.10
2023-09-06T00:20:06.380Z,1012.09
2023-09-06T00:21:06.289Z,1012.09
2023-09-06T00:22:06.290Z,1012.13
2023-09-06T00:23:08.237Z,1012.07
2023-09-06T00:24:06.318Z,1012.09
2023-09-06T00:25:06.244Z,1012.10
2023-09-06T00:26:06.306Z,1012.10
2023-09-06T00:27:06.269Z,1012.10
2023-09-06T00:28:06.341Z,1012.10
2023-09-06T00:29:06.266Z,1012.13
2023-09-06T00:30:06.235Z,1012.10
2023-09-06T00:31:06.230Z,1012.15
2023-09-06T00:32:06.192Z,1012.13
2023-09-06T00:33:06.252Z,1012.13
2023-09-06T00:34:06.233Z,1012.13
2023-09-06T00:35:06.203Z,1012.12
2023-09-06T00:36:06.129Z,1012.10
2023-09-06T00:37:06.199Z,1012.11
2023-09-06T00:38:06.176Z,1012.09
2023-09-06T00:39:06.140Z,1012.11
2023-09-06T00:40:06.085Z,1012.11
2023-09-06T00:41:06.071Z,1012.13
2023-09-06T00:42:06.118Z,1012.08
2023-09-06T00:43:06.113Z,1012.10
2023-09-06T00:44:06.068Z,1012.05
2023-09-06T00:45:06.072Z,1012.07
2023-09-06T00:46:06.100Z,1012.10
2023-09-06T00:47:06.081Z,1012.09
2023-09-06T00:48:06.030Z,1012.12
2023-09-06T00:49:06.107Z,1012.11
2023-09-06T00:50:06.126Z,1012.09
2023-09-06T00:51:06.049Z,1012.05
2023-09-06T00:52:06.114Z,1012.10
2023-09-06T00:53:06.092Z,1012.07
2023-09-06T00:54:05.950Z,1012.08
2023-09-06T00:55:05.951Z,1012.09
2023-09-06T00:56:06.043Z,1012.10
2023-09-06T00:57:05.891Z,1012.09
2023-09-06T00:58:05.905Z,1012.10
2023-09-06T00:59:05.841Z,1012.11
2023-09-06T01:00:05.878Z,1012.11
2023-09-06T01:01:05.934Z,1012.04
2023-09-06T01:02:06.046Z,1012.06
2023-09-06T01:03:05.998Z,1012.03
2023-09-06T01:04:05.888Z,1012.02
2023-09-06T01:05:05.838Z,1012.03
2023-09-06T01:06:05.872Z,1012.01
2023-09-06T01:07:05.818Z,1012.06
2023-09-06T01:08:05.887Z,1012.11
2023-09-06T01:09:05.832Z,1012.06
2023-09-06T01:10:05.806Z,1012.10
2023-09-06T01:11:05.722Z,1012.03
2023-09-06T01:12:05.700Z,1012.03
2023-09-06T01:13:05.895Z,1012.06
2023-09-06T01:14:07.672Z,1012.05
2023-09-06T01:15:05.933Z,1012.07
2023-09-06T01:16:05.858Z,1012.08
2023-09-06T01:17:05.742Z,1012.07
2023-09-06T01:18:05.793Z,1012.08
2023-09-06T01:19:05.667Z,1012.08
2023-09-06T01:20:05.646Z,1012.07
2023-09-06T01:21:05.716Z,1012.14
2023-09-06T01:22:05.694Z,1012.13
2023-09-06T01:23:05.655Z,1012.19
2023-09-06T01:24:13.347Z,1012.16
2023-09-06T01:25:05.714Z,1012.16
2023-09-06T01:47:46.957Z,1012.29
2023-09-06T01:48:45.309Z,1012.31
2023-09-06T01:49:45.218Z,1012.28
2023-09-06T01:50:45.134Z,1012.30
2023-09-06T01:51:53.078Z,1012.26
2023-09-06T02:39:43.604Z,1012.50
2023-09-06T02:40:43.572Z,1012.48
2023-09-06T02:41:43.511Z,1012.51
2023-09-06T02:42:43.472Z,1012.45
2023-09-06T02:43:43.517Z,1012.49
2023-09-06T02:44:43.564Z,1012.51
2023-09-06T02:45:43.499Z,1012.49
2023-09-06T02:46:43.534Z,1012.55
2023-09-06T02:47:43.497Z,1012.59
2023-09-06T02:48:43.456Z,1012.57
2023-09-06T03:06:24.126Z,1012.63
2023-09-06T03:07:35.497Z,1012.57
2023-09-06T03:08:22.801Z,1012.54
2023-09-06T03:09:22.844Z,1012.53
2023-09-06T03:10:22.780Z,1012.54
2023-09-06T03:11:22.831Z,1012.54
2023-09-06T03:12:22.794Z,1012.57
2023-09-06T03:13:22.835Z,1012.58
2023-09-06T03:14:22.883Z,1012.57
2023-09-06T03:15:22.932Z,1012.58
2023-09-06T03:16:22.837Z,1012.56
2023-09-06T03:17:22.933Z,1012.62
2023-09-06T03:18:22.903Z,1012.57
2023-09-06T03:19:22.907Z,1012.61
2023-09-06T03:20:22.850Z,1012.59
2023-09-06T03:21:27.436Z,1012.60
2023-09-06T03:22:22.759Z,1012.62
2023-09-06T03:23:22.789Z,1012.63
2023-09-06T03:24:22.671Z,1012.65
2023-09-06T03:25:30.444Z,1012.63
2023-09-06T03:26:22.824Z,1012.60
2023-09-06T03:27:45.828Z,1012.64
2023-09-06T03:28:22.796Z,1012.64
2023-09-06T03:29:27.105Z,1012.64
2023-09-06T03:30:31.662Z,1012.65
2023-09-06T03:31:22.735Z,1012.65
2023-09-06T03:32:22.662Z,1012.67
2023-09-06T03:33:22.592Z,1012.71
2023-09-06T03:34:22.716Z,1012.69
2023-09-06T03:35:22.675Z,1012.69
2023-09-06T03:36:22.572Z,1012.70
2023-09-06T03:37:22.529Z,1012.68
2023-09-06T03:38:22.493Z,1012.72
2023-09-06T03:39:22.578Z,1012.72
2023-09-06T03:40:22.745Z,1012.70
2023-09-06T03:41:22.438Z,1012.73
2023-09-06T03:42:22.486Z,1012.71
2023-09-06T03:43:22.453Z,1012.74
2023-09-06T03:44:22.438Z,1012.74
2023-09-06T03:45:22.510Z,1012.71
2023-09-06T03:46:22.460Z,1012.77
2023-09-06T03:47:22.498Z,1012.75
2023-09-06T03:48:22.527Z,1012.77
2023-09-06T03:49:22.603Z,1012.81
2023-09-06T03:50:22.310Z,1012.79
2023-09-06T03:51:22.418Z,1012.76
2023-09-06T03:52:22.409Z,1012.74
2023-09-06T03:53:22.480Z,1012.71
2023-09-06T03:54:23.796Z,1012.74
2023-09-06T03:55:22.401Z,1012.68
2023-09-06T03:56:22.346Z,1012.66
2023-09-06T03:57:22.243Z,1012.71
2023-09-06T03:58:22.338Z,1012.70
2023-09-06T03:59:22.437Z,1012.69
2023-09-06T04:00:22.236Z,1012.67
2023-09-06T04:01:22.303Z,1012.65
2023-09-06T04:02:22.403Z,1012.67
2023-09-06T04:03:22.651Z,1012.69
2023-09-06T04:04:22.398Z,1012.68
2023-09-06T04:05:22.243Z,1012.68
2023-09-06T04:06:23.768Z,1012.73
2023-09-06T04:07:22.265Z,1012.73
2023-09-06T04:08:22.325Z,1012.75
2023-09-06T04:09:22.243Z,1012.77
2023-09-06T04:10:22.226Z,1012.78
2023-09-06T04:11:22.133Z,1012.82
2023-09-06T04:12:22.391Z,1012.79
2023-09-06T04:13:22.406Z,1012.80
2023-09-06T04:14:22.217Z,1012.81
2023-09-06T04:15:22.158Z,1012.78
2023-09-06T04:16:22.175Z,1012.78
2023-09-06T04:17:22.248Z,1012.83
2023-09-06T04:18:22.271Z,1012.80
2023-09-06T04:19:22.141Z,1012.78
2023-09-06T04:20:23.997Z,1012.80
2023-09-06T04:21:22.239Z,1012.80
2023-09-06T04:22:22.243Z,1012.80
2023-09-06T04:23:23.973Z,1012.84
2023-09-06T04:24:22.065Z,1012.78
2023-09-06T04:25:22.109Z,1012.76
2023-09-06T04:26:24.226Z,1012.79
2023-09-06T04:27:21.948Z,1012.82
2023-09-06T04:28:22.166Z,1012.80
2023-09-06T04:29:23.873Z,1012.78
2023-09-06T04:30:21.951Z,1012.79
2023-09-06T04:31:22.205Z,1012.77
2023-09-06T04:32:23.401Z,1012.77
2023-09-06T04:33:22.121Z,1012.80
2023-09-06T04:34:21.873Z,1012.81
2023-09-06T04:35:24.098Z,1012.81
2023-09-06T04:36:21.952Z,1012.80
2023-09-06T04:37:23.941Z,1012.83
2023-09-06T04:38:21.899Z,1012.84
2023-09-06T04:39:21.937Z,1012.86
2023-09-06T04:40:22.119Z,1012.87
2023-09-06T04:41:21.924Z,1012.89
2023-09-06T04:42:21.881Z,1012.92
2023-09-06T04:43:21.800Z,1012.96
2023-09-06T04:44:21.821Z,1012.95
2023-09-06T04:45:21.907Z,1013.02
2023-09-06T04:46:21.906Z,1013.02
2023-09-06T04:47:21.723Z,1013.01
2023-09-06T04:48:21.824Z,1013.00
2023-09-06T04:49:21.808Z,1013.01
2023-09-06T04:50:21.858Z,1012.98
2023-09-06T04:51:21.730Z,1012.99
2023-09-06T04:52:21.736Z,1013.01
2023-09-06T04:53:21.765Z,1013.00
2023-09-06T04:54:21.669Z,1012.98
2023-09-06T04:55:21.715Z,1012.97
2023-09-06T04:56:21.594Z,1012.99
2023-09-06T04:57:21.794Z,1013.01
2023-09-06T04:58:21.739Z,1013.01
2023-09-06T04:59:21.861Z,1013.03
2023-09-06T05:00:23.165Z,1013.00
2023-09-06T05:01:21.653Z,1013.06
2023-09-06T05:02:21.620Z,1013.09
2023-09-06T05:03:21.603Z,1013.08
2023-09-06T05:04:21.744Z,1013.09
2023-09-06T05:05:21.651Z,1013.13
2023-09-06T05:06:21.730Z,1013.08
2023-09-06T05:07:21.706Z,1013.09
2023-09-06T05:08:23.558Z,1013.08
2023-09-06T05:09:21.485Z,1013.13
2023-09-06T05:10:21.582Z,1013.15
2023-09-06T05:11:21.542Z,1013.13
2023-09-06T05:12:21.626Z,1013.14
2023-09-06T05:13:23.003Z,1013.11
2023-09-06T05:14:21.509Z,1013.12
2023-09-06T05:15:22.563Z,1013.15
2023-09-06T05:16:21.452Z,1013.15
2023-09-06T05:17:21.501Z,1013.14
2023-09-06T05:18:21.499Z,1013.13
2023-09-06T05:19:21.513Z,1013.16
2023-09-06T05:20:21.443Z,1013.18
2023-09-06T05:21:21.361Z,1013.19
2023-09-06T05:22:21.518Z,1013.16
2023-09-06T05:23:21.470Z,1013.22
2023-09-06T05:24:21.335Z,1013.23
2023-09-06T05:25:21.364Z,1013.24
2023-09-06T05:26:21.358Z,1013.25
2023-09-06T05:27:21.409Z,1013.32
2023-09-06T05:28:21.349Z,1013.28
2023-09-06T05:29:21.314Z,1013.30
2023-09-06T05:30:21.690Z,1013.30
2023-09-06T05:31:21.507Z,1013.28
2023-09-06T05:32:21.373Z,1013.30
2023-09-06T05:33:21.424Z,1013.30
2023-09-06T05:34:21.227Z,1013.28
2023-09-06T05:35:23.502Z,1013.25
2023-09-06T05:36:21.449Z,1013.24
2023-09-06T05:37:21.395Z,1013.23
2023-09-06T05:38:21.450Z,1013.28
2023-09-06T05:39:21.246Z,1013.33
2023-09-06T05:40:21.354Z,1013.34
2023-09-06T05:41:21.235Z,1013.34
2023-09-06T05:42:21.213Z,1013.36
2023-09-06T05:43:23.102Z,1013.31
2023-09-06T05:44:21.058Z,1013.31
2023-09-06T05:45:21.116Z,1013.35
2023-09-06T05:46:32.972Z,1013.37
2023-09-06T05:47:22.172Z,1013.38
2023-09-06T05:48:21.236Z,1013.39
2023-09-06T05:49:21.447Z,1013.39
2023-09-06T05:50:21.115Z,1013.41
2023-09-06T05:51:22.565Z,1013.39
2023-09-06T05:52:21.090Z,1013.43
2023-09-06T05:53:21.129Z,1013.42
2023-09-06T05:54:21.140Z,1013.41
2023-09-06T05:55:21.125Z,1013.42
2023-09-06T05:56:21.050Z,1013.45
2023-09-06T05:57:21.106Z,1013.45
2023-09-06T05:58:20.971Z,1013.43
2023-09-06T05:59:20.988Z,1013.47
2023-09-06T06:00:20.965Z,1013.42
2023-09-06T06:01:21.031Z,1013.45
2023-09-06T06:02:23.104Z,1013.46
2023-09-06T06:03:20.985Z,1013.49
2023-09-06T06:04:21.088Z,1013.47
2023-09-06T06:05:21.261Z,1013.48
2023-09-06T06:06:21.164Z,1013.51
2023-09-06T06:07:22.938Z,1013.46
2023-09-06T06:08:20.949Z,1013.51
2023-09-06T06:09:21.378Z,1013.51
2023-09-06T06:10:21.289Z,1013.46
2023-09-06T06:11:21.005Z,1013.49
2023-09-06T06:12:21.300Z,1013.51
2023-09-06T06:13:21.124Z,1013.53
2023-09-06T06:14:20.944Z,1013.48
2023-09-06T06:15:21.104Z,1013.53
2023-09-06T06:16:20.967Z,1013.54
2023-09-06T06:17:21.041Z,1013.53
2023-09-06T06:18:21.016Z,1013.49
2023-09-06T06:19:22.261Z,1013.54
2023-09-06T06:20:27.861Z,1013.58
2023-09-06T06:21:21.912Z,1013.58
2023-09-06T06:22:20.888Z,1013.55
2023-09-06T06:23:21.056Z,1013.59
2023-09-06T06:24:20.784Z,1013.58
2023-09-06T06:25:20.933Z,1013.57
2023-09-06T06:26:20.907Z,1013.60
2023-09-06T06:27:20.968Z,1013.64
2023-09-06T06:28:21.051Z,1013.61
2023-09-06T06:29:21.032Z,1013.64
2023-09-06T06:30:20.750Z,1013.57
2023-09-06T06:31:21.090Z,1013.61
2023-09-06T06:32:22.890Z,1013.60
2023-09-06T06:33:20.856Z,1013.69
2023-09-06T06:34:20.626Z,1013.64
2023-09-06T06:35:20.980Z,1013.62
2023-09-06T06:36:20.672Z,1013.70
2023-09-06T06:37:22.846Z,1013.69
2023-09-06T06:38:20.644Z,1013.69
2023-09-06T06:39:20.762Z,1013.68
2023-09-06T06:40:22.566Z,1013.65
2023-09-06T06:41:20.918Z,1013.66
2023-09-06T06:42:22.145Z,1013.63
2023-09-06T06:43:20.517Z,1013.64
2023-09-06T06:44:20.836Z,1013.63
2023-09-06T06:45:20.564Z,1013.63
2023-09-06T06:46:20.470Z,1013.60
2023-09-06T06:47:20.638Z,1013.67
2023-09-06T06:48:20.524Z,1013.67
2023-09-06T06:49:20.497Z,1013.65
2023-09-06T06:50:23.491Z,1013.68
2023-09-06T06:51:20.504Z,1013.64
2023-09-06T06:52:20.477Z,1013.64
2023-09-06T06:53:20.443Z,1013.64
2023-09-06T06:54:20.380Z,1013.65
2023-09-06T06:55:20.670Z,1013.61
2023-09-06T06:56:20.484Z,1013.63
2023-09-06T06:57:20.384Z,1013.63
2023-09-06T06:58:20.493Z,1013.60
2023-09-06T06:59:20.528Z,1013.63
2023-09-06T07:00:20.451Z,1013.58
2023-09-06T07:01:20.580Z,1013.60
2023-09-06T07:02:20.362Z,1013.61
2023-09-06T07:03:20.378Z,1013.58
2023-09-06T07:04:22.301Z,1013.61
2023-09-06T07:05:20.353Z,1013.59
2023-09-06T07:06:20.297Z,1013.59
2023-09-06T07:07:22.336Z,1013.60
2023-09-06T07:08:20.346Z,1013.58
2023-09-06T07:09:20.394Z,1013.58
2023-09-06T07:10:20.355Z,1013.58
2023-09-06T07:11:20.178Z,1013.57
2023-09-06T07:12:20.211Z,1013.57
2023-09-06T07:13:20.208Z,1013.58
2023-09-06T07:14:20.378Z,1013.60
2023-09-06T07:15:20.244Z,1013.58
2023-09-06T07:16:20.420Z,1013.60
2023-09-06T07:17:20.340Z,1013.63
2023-09-06T07:18:20.098Z,1013.62
2023-09-06T07:19:20.097Z,1013.58
2023-09-06T07:20:20.187Z,1013.55
2023-09-06T07:21:20.284Z,1013.57
2023-09-06T07:22:20.076Z,1013.57
2023-09-06T07:23:20.074Z,1013.55
2023-09-06T07:24:20.300Z,1013.55
2023-09-06T07:25:20.070Z,1013.61
2023-09-06T07:26:20.069Z,1013.56
2023-09-06T07:27:19.992Z,1013.60
2023-09-06T07:28:19.946Z,1013.62
2023-09-06T07:29:21.527Z,1013.61
2023-09-06T07:30:19.893Z,1013.62
2023-09-06T07:31:20.037Z,1013.64
2023-09-06T07:32:21.970Z,1013.65
2023-09-06T07:33:20.033Z,1013.69
2023-09-06T07:34:19.942Z,1013.68
2023-09-06T07:35:22.031Z,1013.67
2023-09-06T07:36:19.949Z,1013.69
2023-09-06T07:37:20.068Z,1013.68
2023-09-06T07:38:22.738Z,1013.67
2023-09-06T07:39:19.949Z,1013.66
2023-09-06T07:40:19.884Z,1013.66
2023-09-06T07:41:19.825Z,1013.67
2023-09-06T07:42:19.843Z,1013.67
2023-09-06T07:43:21.894Z,1013.69
2023-09-06T07:44:19.831Z,1013.66
2023-09-06T07:45:19.799Z,1013.68
2023-09-06T07:46:19.970Z,1013.68
2023-09-06T07:47:20.042Z,1013.67
2023-09-06T07:48:19.963Z,1013.64
2023-09-06T07:49:19.896Z,1013.67
2023-09-06T07:50:19.825Z,1013.67
2023-09-06T07:51:20.782Z,1013.63
2023-09-06T07:52:19.757Z,1013.66
2023-09-06T07:53:19.746Z,1013.60
2023-09-06T07:54:20.078Z,1013.63
2023-09-06T07:55:19.659Z,1013.63
2023-09-06T07:56:21.817Z,1013.65
2023-09-06T07:57:19.717Z,1013.70
2023-09-06T07:58:19.626Z,1013.68
2023-09-06T07:59:19.749Z,1013.71
2023-09-06T08:00:19.593Z,1013.72
2023-09-06T08:01:21.625Z,1013.74
2023-09-06T08:02:19.773Z,1013.75
2023-09-06T08:03:21.686Z,1013.71
2023-09-06T08:04:19.623Z,1013.72
2023-09-06T08:05:19.571Z,1013.73
2023-09-06T08:06:19.863Z,1013.69
2023-09-06T08:07:19.564Z,1013.70
2023-09-06T08:08:19.564Z,1013.70
2023-09-06T08:09:19.775Z,1013.68
2023-09-06T08:10:19.615Z,1013.74
2023-09-06T08:11:25.391Z,1013.69
2023-09-06T08:12:21.312Z,1013.67
2023-09-06T08:13:20.616Z,1013.67
2023-09-06T08:14:21.062Z,1013.67
2023-09-06T08:15:20.608Z,1013.62
2023-09-06T08:16:21.441Z,1013.59
2023-09-06T08:17:19.406Z,1013.62
2023-09-06T08:18:19.504Z,1013.61
2023-09-06T08:19:19.496Z,1013.61
2023-09-06T08:20:19.451Z,1013.63
2023-09-06T08:21:20.622Z,1013.61
2023-09-06T08:22:21.173Z,1013.60
2023-09-06T08:23:20.395Z,1013.61
2023-09-06T08:24:19.460Z,1013.59
2023-09-06T08:25:19.350Z,1013.60
2023-09-06T08:26:21.329Z,1013.60
2023-09-06T08:27:19.454Z,1013.57
2023-09-06T08:28:19.573Z,1013.58
2023-09-06T08:29:21.342Z,1013.61
2023-09-06T08:30:19.476Z,1013.55
2023-09-06T08:31:19.345Z,1013.53
2023-09-06T08:32:19.676Z,1013.54
2023-09-06T08:33:19.340Z,1013.57
2023-09-06T08:34:21.285Z,1013.57
2023-09-06T08:35:19.312Z,1013.52
2023-09-06T08:36:19.260Z,1013.54
2023-09-06T08:37:19.258Z,1013.53
2023-09-06T08:38:19.235Z,1013.49
2023-09-06T08:39:19.252Z,1013.51
2023-09-06T08:40:20.686Z,1013.47
2023-09-06T08:41:19.305Z,1013.53
2023-09-06T08:42:19.275Z,1013.56
2023-09-06T08:43:19.163Z,1013.53
2023-09-06T08:44:19.168Z,1013.57
2023-09-06T08:45:19.166Z,1013.54
2023-09-06T08:46:19.228Z,1013.57
2023-09-06T08:47:19.191Z,1013.57
2023-09-06T08:48:19.335Z,1013.55
2023-09-06T08:49:19.165Z,1013.53
2023-09-06T08:50:19.114Z,1013.53
2023-09-06T08:51:21.219Z,1013.54
2023-09-06T08:52:19.185Z,1013.53
2023-09-06T08:53:19.154Z,1013.56
2023-09-06T08:54:21.118Z,1013.53
2023-09-06T08:55:19.079Z,1013.53
2023-09-06T08:56:19.045Z,1013.52
2023-09-06T08:57:19.284Z,1013.52
2023-09-06T08:58:19.021Z,1013.53
2023-09-06T08:59:18.993Z,1013.50
2023-09-06T09:00:19.018Z,1013.50
2023-09-06T09:01:19.087Z,1013.47
2023-09-06T09:02:19.109Z,1013.53
2023-09-06T09:03:19.003Z,1013.50
2023-09-06T09:04:19.138Z,1013.49
2023-09-06T09:05:40.010Z,1013.51
2023-09-06T09:06:19.126Z,1013.48
2023-09-06T09:07:20.355Z,1013.49
2023-09-06T09:08:18.949Z,1013.50
2023-09-06T09:45:52.376Z,1013.46
2023-09-06T09:46:52.306Z,1013.47
2023-09-06T09:47:54.485Z,1013.43
2023-09-06T09:48:52.362Z,1013.47
2023-09-06T09:49:52.351Z,1013.43
2023-09-06T09:50:52.236Z,1013.41
2023-09-06T09:51:52.271Z,1013.42
2023-09-06T09:52:52.255Z,1013.42
2023-09-06T09:53:52.306Z,1013.38
2023-09-06T09:54:52.236Z,1013.43
2023-09-06T10:01:47.760Z,1013.48
2023-09-06T10:02:49.519Z,1013.47
2023-09-06T10:03:47.746Z,1013.44
2023-09-06T10:04:47.854Z,1013.41
2023-09-06T10:05:47.719Z,1013.46
2023-09-06T10:06:47.826Z,1013.45
2023-09-06T10:07:49.963Z,1013.43
2023-09-06T10:08:49.831Z,1013.48
2023-09-06T10:09:47.673Z,1013.38
2023-09-06T10:10:47.653Z,1013.39
2023-09-06T10:11:47.652Z,1013.39
2023-09-06T10:12:47.667Z,1013.43
2023-09-06T10:13:48.973Z,1013.38
2023-09-06T10:14:47.531Z,1013.43
2023-09-06T10:15:47.639Z,1013.43
2023-09-06T10:16:47.515Z,1013.44
2023-09-06T10:17:47.500Z,1013.45
2023-09-06T10:18:48.419Z,1013.37
2023-09-06T10:19:54.350Z,1013.33
2023-09-06T10:20:48.538Z,1013.31
2023-09-06T10:21:48.877Z,1013.33
2023-09-06T10:22:47.495Z,1013.32
2023-09-06T10:23:47.497Z,1013.29
2023-09-06T10:24:48.945Z,1013.35
2023-09-06T10:25:47.448Z,1013.33
2023-09-06T10:26:47.348Z,1013.33
2023-09-06T10:27:47.484Z,1013.33
2023-09-06T10:28:47.417Z,1013.32
2023-09-06T10:30:03.406Z,1013.30
2023-09-06T10:30:48.413Z,1013.32
2023-09-06T10:31:47.477Z,1013.26
2023-09-06T10:32:47.296Z,1013.25
2023-09-06T10:33:47.297Z,1013.27
2023-09-06T10:34:49.327Z,1013.25
2023-09-06T10:35:47.319Z,1013.21
2023-09-06T10:36:47.343Z,1013.26
2023-09-06T10:37:47.253Z,1013.29
2023-09-06T10:38:47.327Z,1013.24
2023-09-06T10:39:47.328Z,1013.24
2023-09-06T10:40:49.210Z,1013.26
2023-09-06T10:41:47.346Z,1013.25
2023-09-06T10:42:47.205Z,1013.30
2023-09-06T10:43:47.345Z,1013.29
2023-09-06T10:44:47.292Z,1013.27
2023-09-06T10:45:48.698Z,1013.27
2023-09-06T10:46:47.245Z,1013.26
2023-09-06T10:47:47.234Z,1013.23
2023-09-06T10:48:47.230Z,1013.27
2023-09-06T10:49:47.133Z,1013.26
2023-09-06T10:50:48.652Z,1013.21
2023-09-06T10:51:47.135Z,1013.22
2023-09-06T10:52:47.132Z,1013.22
2023-09-06T10:53:48.588Z,1013.20
2023-09-06T10:54:47.031Z,1013.20
2023-09-06T10:55:47.061Z,1013.20
2023-09-06T10:56:47.544Z,1013.18
2023-09-06T10:57:47.039Z,1013.17
2023-09-06T10:58:47.081Z,1013.12
2023-09-06T10:59:47.078Z,1013.12
2023-09-06T11:00:47.096Z,1013.14
2023-09-06T11:01:56.116Z,1013.15
2023-09-06T11:02:48.094Z,1013.12
2023-09-06T11:03:47.066Z,1013.15
2023-09-06T11:04:48.615Z,1013.13
2023-09-06T11:05:47.032Z,1013.06
2023-09-06T11:06:47.002Z,1013.09
2023-09-06T11:07:50.562Z,1013.07
2023-09-06T11:08:46.919Z,1013.07
2023-09-06T11:09:46.955Z,1013.09
2023-09-06T11:10:47.014Z,1013.11
2023-09-06T11:11:47.010Z,1013.05
2023-09-06T11:12:47.051Z,1013.08
2023-09-06T11:13:46.856Z,1013.09
2023-09-06T11:14:46.842Z,1013.08
2023-09-06T11:15:48.875Z,1013.06
2023-09-06T11:16:46.845Z,1013.07
2023-09-06T11:17:48.997Z,1013.06
2023-09-06T11:18:46.858Z,1013.02
2023-09-06T11:19:46.839Z,1013.06
2023-09-06T11:20:48.277Z,1013.01
2023-09-06T11:21:46.818Z,1013.04
2023-09-06T11:22:46.797Z,1013.03
2023-09-06T11:23:46.738Z,1013.06
2023-09-06T11:24:46.808Z,1013.01
2023-09-06T11:25:46.868Z,1013.01
2023-09-06T11:26:46.756Z,1012.97
2023-09-06T11:27:46.742Z,1012.98
2023-09-06T11:28:46.902Z,1012.99
2023-09-06T11:29:46.744Z,1013.02
2023-09-06T11:30:46.740Z,1012.99
2023-09-06T11:31:46.990Z,1012.99
2023-09-06T11:32:46.865Z,1013.03
2023-09-06T11:33:46.735Z,1013.00
2023-09-06T11:34:46.711Z,1012.98
2023-09-06T11:35:48.825Z,1012.97
2023-09-06T11:36:46.652Z,1012.97
2023-09-06T11:37:46.633Z,1012.97
2023-09-06T11:38:48.549Z,1012.92
2023-09-06T11:39:46.612Z,1012.96
2023-09-06T11:40:46.672Z,1012.92
2023-09-06T11:41:46.759Z,1012.95
2023-09-06T11:42:49.322Z,1012.93
2023-09-06T11:43:46.835Z,1012.94
2023-09-06T11:44:46.673Z,1012.97
2023-09-06T11:45:46.580Z,1012.94
2023-09-06T11:46:48.104Z,1012.97
2023-09-06T11:47:46.623Z,1012.95
2023-09-06T11:48:46.540Z,1012.97
2023-09-06T11:49:46.574Z,1012.97
2023-09-06T11:50:46.633Z,1012.95
2023-09-06T11:51:48.491Z,1012.97
2023-09-06T11:52:56.601Z,1012.94
2023-09-06T11:53:47.475Z,1012.91
2023-09-06T11:54:47.954Z,1012.89
2023-09-06T11:55:46.420Z,1012.92
2023-09-06T11:56:46.416Z,1012.95
2023-09-06T11:57:48.376Z,1012.93
2023-09-06T11:58:46.383Z,1012.94
2023-09-06T11:59:46.456Z,1012.92
2023-09-06T12:00:48.360Z,1012.92
2023-09-06T12:01:46.489Z,1012.93
2023-09-06T12:02:46.444Z,1012.93
2023-09-06T12:03:48.550Z,1012.94
2023-09-06T12:04:46.337Z,1012.86
2023-09-06T12:05:50.266Z,1012.86
2023-09-06T12:06:49.550Z,1012.86
2023-09-06T12:07:46.277Z,1012.82
2023-09-06T12:08:46.353Z,1012.82
2023-09-06T12:09:46.315Z,1012.80
2023-09-06T12:10:46.292Z,1012.81
2023-09-06T12:11:47.826Z,1012.84
2023-09-06T12:12:46.209Z,1012.79
2023-09-06T12:13:46.337Z,1012.79
2023-09-06T12:14:46.315Z,1012.82
2023-09-06T12:15:46.242Z,1012.82
2023-09-06T12:16:46.264Z,1012.81
2023-09-06T12:17:46.410Z,1012.82
2023-09-06T12:18:46.350Z,1012.80
2023-09-06T12:19:46.310Z,1012.80
2023-09-06T12:20:46.246Z,1012.82
2023-09-06T12:21:46.136Z,1012.76
2023-09-06T12:22:47.573Z,1012.73
2023-09-06T12:23:46.141Z,1012.73
2023-09-06T12:24:46.239Z,1012.78
2023-09-06T12:25:46.125Z,1012.75
2023-09-06T12:26:46.292Z,-34.65
2023-09-06T12:27:46.231Z,-34.65
2023-09-06T12:28:46.107Z,-34.65
2023-09-06T12:29:46.176Z,-34.65
2023-09-06T12:30:46.221Z,-34.65
2023-09-06T12:31:46.180Z,-34.65
2023-09-06T12:32:46.145Z,-34.65
2023-09-06T12:33:46.109Z,-34.65
2023-09-06T12:34:46.140Z,-34.65
2023-09-06T12:35:46.125Z,-34.65
2023-09-06T12:36:46.096Z,-34.65
2023-09-06T12:37:46.168Z,-34.65
2023-09-06T12:38:45.995Z,-34.65
2023-09-06T12:39:46.031Z,-34.65
2023-09-06T12:40:46.085Z,-34.65
2023-09-06T12:41:47.378Z,-34.65
2023-09-06T12:42:46.035Z,-34.65
2023-09-06T12:43:46.079Z,-34.65
2023-09-06T12:44:46.043Z,-34.65
2023-09-06T12:45:46.104Z,-34.65
2023-09-06T12:47:06.968Z,-34.65
2023-09-06T12:47:46.069Z,-34.65
2023-09-06T12:48:46.277Z,-34.65
2023-09-06T12:49:45.964Z,-34.65
2023-09-06T12:50:46.023Z,-34.65
2023-09-06T12:51:45.874Z,-34.65
2023-09-06T12:52:45.889Z,-34.65
2023-09-06T12:53:45.990Z,-34.65
2023-09-06T12:54:53.771Z,-34.65
2023-09-06T12:55:48.776Z,-34.65
2023-09-06T12:56:45.856Z,-34.65
2023-09-06T12:57:45.967Z,-34.65
2023-09-06T12:59:58.999Z,1012.41
2023-09-06T13:00:59.291Z,1012.38
2023-09-06T13:01:58.864Z,1012.40
2023-09-06T13:02:58.924Z,1012.37
2023-09-06T13:03:59.131Z,1012.38
2023-09-06T13:04:59.239Z,1012.35
2023-09-06T13:05:58.848Z,1012.34
2023-09-06T13:06:58.877Z,1012.37
2023-09-06T13:07:58.793Z,1012.38
2023-09-06T13:08:58.857Z,1012.33
2023-09-06T13:09:58.799Z,1012.38
2023-09-06T13:10:58.923Z,1012.37
2023-09-06T13:11:58.844Z,1012.37
2023-09-06T13:12:58.810Z,1012.30
2023-09-06T13:14:01.252Z,1012.33
2023-09-06T13:14:58.794Z,1012.28
2023-09-06T13:15:58.724Z,1012.31
2023-09-06T13:16:58.878Z,1012.32
2023-09-06T13:17:58.797Z,1012.28
2023-09-06T13:18:58.940Z,1012.28
2023-09-06T13:19:58.665Z,1012.30
2023-09-06T13:20:58.676Z,1012.33
2023-09-06T13:21:58.668Z,1012.33
2023-09-06T13:22:58.690Z,1012.33
2023-09-06T13:23:58.757Z,1012.29
2023-09-06T13:24:58.614Z,1012.33
2023-09-06T13:25:58.844Z,1012.31
2023-09-06T13:26:58.609Z,1012.30
2023-09-06T13:27:58.698Z,1012.27
2023-09-06T13:28:58.521Z,1012.27
2023-09-06T13:29:58.540Z,1012.30
2023-09-06T13:30:58.641Z,1012.26
2023-09-06T13:31:58.647Z,1012.26
2023-09-06T13:32:58.740Z,1012.20
2023-09-06T13:33:58.455Z,1012.21
2023-09-06T13:34:58.683Z,1012.22
2023-09-06T13:35:58.476Z,1012.20
2023-09-06T13:36:58.417Z,1012.20
2023-09-06T13:37:58.469Z,1012.18
2023-09-06T13:39:00.454Z,1012.16
2023-09-06T13:39:58.457Z,1012.18
2023-09-06T13:40:58.383Z,1012.20
2023-09-06T13:41:58.513Z,1012.17
2023-09-06T13:42:58.379Z,1012.20
2023-09-06T13:43:58.400Z,1012.20
2023-09-06T13:44:58.533Z,1012.19
2023-09-06T13:45:58.457Z,1012.19
2023-09-06T13:46:58.347Z,1012.18
2023-09-06T13:47:58.515Z,1012.18
2023-09-06T13:48:58.324Z,1012.13
2023-09-06T13:49:58.264Z,1012.17
2023-09-06T13:51:00.374Z,1012.10
2023-09-06T13:51:58.238Z,1012.13
2023-09-06T13:52:59.257Z,1012.12
2023-09-06T13:53:58.298Z,1012.14
2023-09-06T13:54:58.252Z,1012.14
2023-09-06T13:55:58.540Z,1012.12
2023-09-06T13:56:58.244Z,1012.09
2023-09-06T13:57:58.167Z,1012.07
2023-09-06T13:58:58.229Z,1012.07
2023-09-06T13:59:58.258Z,1012.08
2023-09-06T14:00:58.182Z,1012.03
2023-09-06T14:01:58.262Z,1012.03
2023-09-06T14:02:58.325Z,1012.05
2023-09-06T14:03:58.240Z,1012.05
2023-09-06T14:04:58.204Z,1012.05
2023-09-06T14:05:58.210Z,1012.05
2023-09-06T14:06:58.187Z,1012.05
2023-09-06T14:07:58.084Z,1012.02
2023-09-06T14:08:58.093Z,1012.02
2023-09-06T14:09:58.160Z,1012.02
2023-09-06T14:10:58.620Z,1012.02
2023-09-06T14:11:58.099Z,1012.03
2023-09-06T14:12:59.705Z,1012.00
2023-09-06T14:13:58.102Z,1012.01
2023-09-06T14:14:58.151Z,1012.01